createdAt,value
2023-02-27T00:00:57.101Z,99.90
2023-02-27T00:02:59.444Z,99.90
2023-02-27T00:05:01.007Z,99.90
2023-02-27T00:07:02.706Z,99.90
2023-02-27T00:09:04.455Z,99.90
2023-02-27T00:11:06.076Z,99.90
2023-02-27T00:13:07.723Z,99.90
2023-02-27T00:15:10.799Z,99.90
2023-02-27T00:17:12.433Z,99.90
2023-02-27T00:19:14.121Z,99.90
2023-02-27T00:21:15.982Z,99.90
2023-02-27T00:23:17.569Z,99.90
2023-02-27T00:25:19.257Z,99.90
2023-02-27T00:27:23.210Z,99.90
2023-02-27T00:29:25.025Z,99.90
2023-02-27T00:31:26.778Z,99.90
2023-02-27T00:33:28.719Z,99.90
2023-02-27T00:35:30.292Z,99.90
2023-02-27T00:37:31.964Z,99.90
2023-02-27T00:39:33.810Z,99.90
2023-02-27T00:41:35.469Z,99.90
2023-02-27T00:43:37.164Z,99.90
2023-02-27T00:45:38.719Z,99.90
2023-02-27T00:47:40.459Z,99.90
2023-02-27T00:49:42.712Z,99.90
2023-02-27T00:51:44.308Z,99.90
2023-02-27T00:53:46.302Z,99.90
2023-02-27T00:55:47.952Z,99.90
2023-02-27T00:57:49.663Z,99.90
2023-02-27T00:59:51.304Z,99.90
2023-02-27T01:01:52.927Z,99.90
2023-02-27T01:03:54.519Z,99.90
2023-02-27T01:05:56.089Z,99.90
2023-02-27T01:07:57.767Z,99.90
2023-02-27T01:09:59.334Z,99.90
2023-02-27T01:12:01.025Z,99.90
2023-02-27T01:14:02.689Z,99.90
2023-02-27T01:16:04.523Z,99.90
2023-02-27T01:18:06.158Z,99.90
2023-02-27T01:20:08.695Z,99.90
2023-02-27T01:22:10.303Z,99.90
2023-02-27T01:24:12.659Z,99.90
2023-02-27T01:26:14.243Z,99.90
2023-02-27T01:28:15.925Z,99.90
2023-02-27T01:30:17.541Z,99.90
2023-02-27T01:32:19.308Z,99.90
2023-02-27T01:34:20.933Z,99.90
2023-02-27T01:36:22.558Z,99.90
2023-02-27T01:38:24.135Z,99.90
2023-02-27T01:40:25.688Z,99.90
2023-02-27T01:42:28.324Z,99.90
2023-02-27T01:44:31.025Z,99.90
2023-02-27T01:46:33.107Z,99.90
2023-02-27T01:48:37.042Z,99.90
2023-02-27T01:50:41.872Z,99.90
2023-02-27T01:52:44.156Z,99.90
2023-02-27T01:54:45.942Z,99.90
2023-02-27T01:56:47.640Z,99.90
2023-02-27T01:58:50.034Z,99.90
2023-02-27T02:00:51.620Z,99.90
2023-02-27T02:03:16.428Z,99.90
2023-02-27T02:05:18.069Z,99.90
2023-02-27T02:07:21.018Z,99.90
2023-02-27T02:09:23.404Z,99.90
2023-02-27T02:11:26.201Z,99.90
2023-02-27T02:13:28.051Z,99.90
2023-02-27T02:15:32.690Z,99.90
2023-02-27T02:17:40.976Z,99.90
2023-02-27T02:19:43.273Z,99.90
2023-02-27T02:22:03.487Z,99.90
2023-02-27T02:24:31.594Z,99.90
2023-02-27T02:26:33.574Z,99.90
2023-02-27T02:28:53.557Z,99.90
2023-02-27T02:31:07.292Z,99.90
2023-02-27T02:33:35.260Z,99.90
2023-02-27T02:35:36.851Z,99.90
2023-02-27T02:37:57.109Z,99.90
2023-02-27T02:40:04.918Z,99.90
2023-02-27T02:42:25.403Z,99.90
2023-02-27T02:44:36.128Z,99.90
2023-02-27T02:47:00.975Z,99.90
2023-02-27T02:49:10.637Z,99.90
2023-02-27T02:51:32.577Z,99.90
2023-02-27T02:53:37.752Z,99.90
2023-02-27T02:55:39.399Z,99.90
2023-02-27T02:57:43.162Z,99.90
2023-02-27T02:59:48.649Z,99.90
2023-02-27T03:01:53.951Z,99.90
2023-02-27T03:03:58.287Z,99.90
2023-02-27T03:06:26.371Z,99.90
2023-02-27T03:08:33.509Z,99.90
2023-02-27T03:10:37.887Z,99.90
2023-02-27T03:12:41.525Z,99.90
2023-02-27T03:15:01.827Z,99.90
2023-02-27T03:17:09.310Z,99.90
2023-02-27T03:19:13.046Z,99.90
2023-02-27T03:21:18.666Z,99.90
2023-02-27T03:23:24.768Z,99.90
2023-02-27T03:25:27.413Z,99.90
2023-02-27T03:27:35.390Z,99.90
2023-02-27T03:29:55.897Z,99.90
2023-02-27T03:32:01.993Z,99.90
2023-02-27T03:34:19.389Z,99.90
2023-02-27T03:36:27.501Z,99.90
2023-02-27T03:38:36.233Z,99.90
2023-02-27T03:40:37.839Z,99.90
2023-02-27T03:42:44.924Z,99.90
2023-02-27T03:44:52.527Z,99.90
2023-02-27T03:46:54.315Z,99.90
2023-02-27T03:48:55.979Z,99.90
2023-02-27T03:50:57.654Z,99.90
2023-02-27T03:52:59.326Z,99.90
2023-02-27T03:55:08.861Z,99.90
2023-02-27T03:57:11.716Z,99.90
2023-02-27T03:59:13.595Z,99.90
2023-02-27T04:01:15.285Z,99.90
2023-02-27T04:03:47.944Z,99.90
2023-02-27T04:05:50.751Z,99.90
2023-02-27T04:07:55.381Z,99.90
2023-02-27T04:09:57.022Z,99.90
2023-02-27T04:12:14.346Z,99.90
2023-02-27T04:14:38.444Z,99.90
2023-02-27T04:16:50.583Z,99.90
2023-02-27T04:19:10.904Z,99.90
2023-02-27T04:21:18.695Z,99.90
2023-02-27T04:23:28.483Z,99.90
2023-02-27T04:25:35.248Z,99.90
2023-02-27T04:27:42.965Z,99.90
2023-02-27T04:29:44.495Z,99.90
2023-02-27T04:31:59.805Z,99.90
2023-02-27T04:34:06.238Z,99.90
2023-02-27T04:36:18.201Z,99.90
2023-02-27T04:38:22.602Z,99.90
2023-02-27T04:40:27.269Z,99.90
2023-02-27T04:42:31.281Z,99.90
2023-02-27T04:44:34.604Z,99.90
2023-02-27T04:46:37.320Z,99.90
2023-02-27T04:48:43.194Z,99.90
2023-02-27T04:50:52.162Z,99.90
2023-02-27T04:53:06.613Z,99.90
2023-02-27T04:55:16.108Z,99.90
2023-02-27T04:57:24.729Z,99.90
2023-02-27T04:59:29.104Z,99.90
2023-02-27T05:01:34.406Z,99.90
2023-02-27T05:03:39.160Z,99.90
2023-02-27T05:05:41.839Z,99.90
2023-02-27T05:07:47.664Z,99.90
2023-02-27T05:09:55.370Z,99.90
2023-02-27T05:12:00.023Z,99.90
2023-02-27T05:14:11.431Z,99.90
2023-02-27T05:16:33.410Z,99.90
2023-02-27T05:18:42.504Z,99.90
2023-02-27T05:20:56.129Z,99.90
2023-02-27T05:23:07.167Z,99.90
2023-02-27T05:25:10.710Z,99.90
2023-02-27T05:27:18.178Z,99.90
2023-02-27T05:29:38.596Z,99.90
2023-02-27T05:31:47.992Z,99.90
2023-02-27T05:34:00.251Z,99.90
2023-02-27T05:36:17.724Z,99.90
2023-02-27T05:38:21.447Z,99.90
2023-02-27T05:40:26.585Z,99.90
2023-02-27T05:42:31.118Z,99.90
2023-02-27T05:44:37.457Z,99.90
2023-02-27T05:46:42.502Z,99.90
2023-02-27T05:48:47.128Z,99.90
2023-02-27T05:50:49.831Z,99.90
2023-02-27T05:52:52.663Z,99.90
2023-02-27T05:55:08.475Z,99.90
2023-02-27T05:57:16.456Z,99.90
2023-02-27T05:59:22.626Z,99.90
2023-02-27T06:01:24.551Z,99.90
2023-02-27T06:03:27.165Z,99.90
2023-02-27T06:05:29.160Z,99.90
2023-02-27T06:07:31.553Z,99.90
2023-02-27T06:09:33.765Z,99.90
2023-02-27T06:11:35.351Z,99.90
2023-02-27T06:13:37.012Z,99.90
2023-02-27T06:15:38.800Z,99.90
2023-02-27T06:17:40.371Z,99.90
2023-02-27T06:19:42.046Z,99.90
2023-02-27T06:21:43.714Z,99.90
2023-02-27T06:23:45.313Z,99.90
2023-02-27T06:25:48.152Z,99.90
2023-02-27T06:27:49.753Z,99.90
2023-02-27T06:29:51.424Z,99.90
2023-02-27T06:31:53.056Z,99.90
2023-02-27T06:33:55.621Z,99.90
2023-02-27T06:35:57.254Z,99.90
2023-02-27T06:37:58.978Z,99.90
2023-02-27T06:40:00.606Z,99.90
2023-02-27T06:42:02.183Z,99.90
2023-02-27T06:44:03.829Z,99.90
2023-02-27T06:46:05.611Z,99.90
2023-02-27T06:48:07.371Z,99.90
2023-02-27T06:50:11.192Z,99.90
2023-02-27T06:52:12.852Z,99.90
2023-02-27T06:54:14.444Z,99.90
2023-02-27T06:56:16.082Z,99.90
2023-02-27T06:58:24.884Z,99.90
2023-02-27T07:00:26.570Z,99.90
2023-02-27T07:02:28.153Z,99.90
2023-02-27T07:04:29.799Z,99.90
2023-02-27T07:07:32.433Z,99.90
2023-02-27T07:09:00.937Z,99.90
2023-02-27T07:11:03.284Z,99.90
2023-02-27T07:13:04.893Z,99.90
2023-02-27T07:15:07.389Z,99.90
2023-02-27T07:17:08.965Z,99.90
2023-02-27T07:19:10.684Z,99.90
2023-02-27T07:21:12.320Z,99.90
2023-02-27T07:23:13.897Z,99.90
2023-02-27T07:25:15.510Z,99.90
2023-02-27T07:27:17.066Z,99.90
2023-02-27T07:29:26.865Z,99.90
2023-02-27T07:31:29.093Z,99.90
2023-02-27T07:33:32.094Z,99.90
2023-02-27T07:35:33.793Z,99.90
2023-02-27T07:37:40.068Z,99.90
2023-02-27T07:42:09.353Z,99.90
2023-02-27T07:44:11.327Z,99.90
2023-02-27T07:46:13.131Z,99.90
2023-02-27T07:48:15.964Z,99.90
2023-02-27T07:50:18.200Z,99.90
2023-02-27T07:52:19.860Z,99.90
2023-02-27T07:54:21.967Z,99.90
2023-02-27T07:56:24.049Z,99.90
2023-02-27T07:58:25.757Z,99.90
2023-02-27T08:00:27.674Z,99.90
2023-02-27T08:02:29.353Z,99.90
2023-02-27T08:04:31.052Z,99.90
2023-02-27T08:06:32.781Z,99.90
2023-02-27T08:08:35.301Z,99.90
2023-02-27T08:10:37.017Z,99.90
2023-02-27T08:12:39.344Z,99.90
2023-02-27T08:14:41.096Z,99.90
2023-02-27T08:16:42.774Z,99.90
2023-02-27T08:18:44.542Z,99.90
2023-02-27T08:20:46.670Z,99.90
2023-02-27T08:22:48.747Z,99.90
2023-02-27T08:24:50.409Z,99.90
2023-02-27T08:26:52.067Z,99.90
2023-02-27T08:28:54.657Z,99.90
2023-02-27T08:30:56.235Z,99.90
2023-02-27T08:32:57.815Z,99.90
2023-02-27T08:34:59.764Z,99.90
2023-02-27T08:37:01.353Z,99.90
2023-02-27T08:39:03.041Z,99.90
2023-02-27T08:41:04.982Z,99.90
2023-02-27T08:43:06.619Z,99.90
2023-02-27T08:45:09.393Z,99.90
2023-02-27T08:47:11.168Z,99.90
2023-02-27T08:49:15.708Z,99.90
2023-02-27T08:51:17.494Z,99.90
2023-02-27T08:53:19.717Z,99.90
2023-02-27T08:55:21.543Z,99.90
2023-02-27T08:57:23.225Z,99.90
2023-02-27T08:59:25.015Z,99.90
2023-02-27T09:01:29.845Z,99.90
2023-02-27T09:03:31.775Z,99.90
2023-02-27T09:05:35.353Z,99.90
2023-02-27T09:07:37.017Z,99.90
2023-02-27T09:09:38.664Z,99.90
2023-02-27T09:11:40.415Z,99.90
2023-02-27T09:13:42.190Z,99.90
2023-02-27T09:15:43.820Z,99.90
2023-02-27T09:17:45.466Z,99.90
2023-02-27T09:19:47.117Z,99.90
2023-02-27T09:21:48.741Z,99.90
2023-02-27T09:23:50.914Z,99.90
2023-02-27T09:25:52.640Z,99.90
2023-02-27T09:27:54.738Z,99.90
2023-02-27T09:29:56.568Z,99.90
2023-02-27T09:31:58.366Z,99.90
2023-02-27T09:34:01.596Z,99.90
2023-02-27T09:36:05.851Z,99.90
2023-02-27T09:38:07.967Z,99.90
2023-02-27T09:40:22.058Z,99.90
2023-02-27T09:42:26.033Z,99.90
2023-02-27T09:44:47.098Z,99.90
2023-02-27T09:46:49.230Z,99.90
2023-02-27T09:48:53.658Z,99.90
2023-02-27T09:50:55.898Z,99.90
2023-02-27T09:52:57.541Z,99.90
2023-02-27T09:54:59.273Z,99.90
2023-02-27T09:57:02.654Z,99.90
2023-02-27T09:59:25.322Z,99.90
2023-02-27T10:01:30.081Z,99.90
2023-02-27T10:03:45.144Z,99.90
2023-02-27T10:05:59.116Z,99.90
2023-02-27T10:08:11.817Z,99.90
2023-02-27T10:10:31.622Z,99.90
2023-02-27T10:12:42.210Z,99.90
2023-02-27T10:15:13.045Z,99.90
2023-02-27T10:17:45.280Z,99.90
2023-02-27T10:22:35.288Z,99.90
2023-02-27T10:24:45.047Z,99.90
2023-02-27T10:26:56.772Z,99.90
2023-02-27T10:29:02.970Z,99.90
2023-02-27T10:31:13.520Z,99.90
2023-02-27T10:33:37.121Z,99.90
2023-02-27T10:35:42.924Z,99.90
2023-02-27T10:37:51.126Z,99.90
2023-02-27T10:39:55.269Z,99.90
2023-02-27T10:41:59.744Z,99.90
2023-02-27T10:44:01.614Z,99.90
2023-02-27T10:46:06.632Z,99.90
2023-02-27T10:48:08.676Z,99.90
2023-02-27T10:50:31.947Z,99.90
2023-02-27T10:52:33.596Z,99.90
2023-02-27T10:54:35.754Z,99.90
2023-02-27T10:56:39.388Z,99.90
2023-02-27T10:58:41.179Z,99.90
2023-02-27T11:00:57.078Z,99.90
2023-02-27T11:02:59.169Z,99.90
2023-02-27T11:05:00.960Z,99.90
2023-02-27T11:07:07.168Z,99.90
2023-02-27T11:09:26.095Z,99.90
2023-02-27T11:11:28.464Z,99.90
2023-02-27T11:13:33.275Z,99.90
2023-02-27T11:15:37.082Z,99.90
2023-02-27T11:17:43.827Z,99.90
2023-02-27T11:19:48.496Z,99.90
2023-02-27T11:22:03.893Z,99.90
2023-02-27T11:24:07.880Z,99.90
2023-02-27T11:26:11.569Z,99.90
2023-02-27T11:28:29.829Z,99.90
2023-02-27T11:30:31.964Z,99.90
2023-02-27T11:32:44.604Z,99.90
2023-02-27T11:34:50.200Z,99.90
2023-02-27T11:36:57.526Z,99.90
2023-02-27T11:38:59.274Z,99.90
2023-02-27T11:41:07.370Z,99.90
2023-02-27T11:43:17.042Z,99.90
2023-02-27T11:46:05.860Z,99.90
2023-02-27T11:47:48.369Z,99.90
2023-02-27T11:49:55.821Z,99.90
2023-02-27T11:52:18.037Z,99.90
2023-02-27T11:54:19.730Z,99.90
2023-02-27T11:56:25.005Z,99.90
2023-02-27T11:58:28.586Z,99.90
2023-02-27T12:00:36.598Z,99.90
2023-02-27T12:02:39.360Z,99.90
2023-02-27T12:04:44.041Z,99.90
2023-02-27T12:06:51.279Z,99.90
2023-02-27T12:08:55.726Z,99.90
2023-02-27T12:11:12.910Z,99.90
2023-02-27T12:13:19.499Z,99.90
2023-02-27T12:15:41.523Z,99.90
2023-02-27T12:17:48.604Z,99.90
2023-02-27T12:20:02.333Z,99.90
2023-02-27T12:22:12.438Z,99.90
2023-02-27T12:24:24.624Z,99.90
2023-02-27T12:28:55.448Z,99.90
2023-02-27T12:33:41.813Z,99.90
2023-02-27T12:36:03.955Z,99.90
2023-02-27T12:41:39.098Z,99.90
2023-02-27T12:43:56.568Z,99.90
2023-02-27T12:46:19.645Z,99.90
2023-02-27T12:48:41.259Z,99.90
2023-02-27T12:51:04.449Z,99.90
2023-02-27T12:53:24.910Z,99.90
2023-02-27T12:55:28.250Z,99.90
2023-02-27T12:57:48.833Z,99.90
2023-02-27T13:00:03.548Z,99.20
2023-02-27T13:02:23.856Z,99.30
2023-02-27T13:04:47.265Z,99.90
2023-02-27T13:07:03.343Z,97.40
2023-02-27T13:09:14.569Z,99.10
2023-02-27T13:11:42.379Z,98.60
2023-02-27T13:13:48.072Z,99.40
2023-02-27T13:16:01.209Z,99.90
2023-02-27T13:18:19.085Z,99.90
2023-02-27T13:20:21.561Z,99.90
2023-02-27T13:22:30.671Z,98.70
2023-02-27T13:24:33.537Z,99.80
2023-02-27T13:26:46.581Z,99.90
2023-02-27T13:28:48.631Z,99.90
2023-02-27T13:31:05.355Z,99.90
2023-02-27T13:33:16.790Z,99.90
2023-02-27T13:35:29.251Z,99.60
2023-02-27T13:37:51.281Z,99.90
2023-02-27T13:39:55.981Z,99.90
2023-02-27T13:41:57.646Z,99.00
2023-02-27T13:44:00.073Z,99.90
2023-02-27T13:46:02.973Z,99.30
2023-02-27T13:48:24.676Z,99.60
2023-02-27T13:50:26.419Z,99.00
2023-02-27T13:52:35.062Z,99.90
2023-02-27T13:54:40.542Z,99.90
2023-02-27T13:57:11.423Z,99.90
2023-02-27T13:59:13.182Z,99.90
2023-02-27T14:01:22.284Z,99.90
2023-02-27T14:03:26.312Z,98.40
2023-02-27T14:05:28.082Z,95.50
2023-02-27T14:07:32.048Z,92.70
2023-02-27T14:09:36.992Z,93.60
2023-02-27T14:11:41.629Z,94.60
2023-02-27T14:13:49.909Z,95.50
2023-02-27T14:15:53.767Z,96.00
2023-02-27T14:18:11.452Z,97.80
2023-02-27T14:20:19.763Z,97.00
2023-02-27T14:22:29.296Z,96.10
2023-02-27T14:24:44.853Z,96.50
2023-02-27T14:26:53.043Z,94.90
2023-02-27T14:28:59.276Z,90.30
2023-02-27T14:31:08.519Z,85.30
2023-02-27T14:33:14.964Z,90.00
2023-02-27T14:35:16.862Z,93.00
2023-02-27T14:37:23.183Z,96.70
2023-02-27T14:39:33.217Z,97.70
2023-02-27T14:41:39.485Z,97.10
2023-02-27T14:43:45.114Z,97.60
2023-02-27T14:45:47.697Z,97.40
2023-02-27T14:47:53.407Z,97.70
2023-02-27T14:49:56.180Z,97.90
2023-02-27T14:52:10.349Z,98.50
2023-02-27T14:54:12.010Z,98.30
2023-02-27T14:56:18.499Z,99.50
2023-02-27T14:58:21.675Z,99.30
2023-02-27T15:00:53.943Z,99.00
2023-02-27T15:02:55.994Z,97.50
2023-02-27T15:05:00.530Z,92.70
2023-02-27T15:07:02.922Z,93.00
2023-02-27T15:09:04.889Z,93.00
2023-02-27T15:11:06.886Z,99.90
2023-02-27T15:13:16.620Z,99.90
2023-02-27T15:15:19.877Z,99.90
2023-02-27T15:17:23.696Z,99.90
2023-02-27T15:19:26.219Z,99.90
2023-02-27T15:21:30.460Z,99.90
2023-02-27T15:23:33.333Z,99.90
2023-02-27T15:25:37.333Z,99.00
2023-02-27T15:27:41.905Z,99.90
2023-02-27T15:29:49.132Z,99.90
2023-02-27T15:31:51.034Z,99.90
2023-02-27T15:33:53.260Z,99.90
2023-02-27T15:35:55.660Z,99.90
2023-02-27T15:37:58.496Z,99.90
2023-02-27T15:40:01.973Z,99.90
2023-02-27T15:42:04.744Z,99.90
2023-02-27T15:44:06.396Z,99.90
2023-02-27T15:46:08.232Z,99.90
2023-02-27T15:48:13.931Z,99.90
2023-02-27T15:50:15.617Z,99.90
2023-02-27T15:52:25.153Z,99.90
2023-02-27T15:54:30.982Z,99.90
2023-02-27T15:56:33.934Z,99.90
2023-02-27T15:58:37.705Z,99.90
2023-02-27T16:00:39.592Z,99.90
2023-02-27T16:02:52.703Z,99.90
2023-02-27T16:04:54.431Z,99.90
2023-02-27T16:07:00.247Z,99.90
2023-02-27T16:09:06.541Z,99.90
2023-02-27T16:11:17.448Z,99.90
2023-02-27T16:13:21.935Z,99.90
2023-02-27T16:15:23.648Z,99.90
2023-02-27T16:17:30.616Z,99.90
2023-02-27T16:19:32.698Z,99.90
2023-02-27T16:21:35.185Z,99.90
2023-02-27T16:23:36.928Z,99.90
2023-02-27T16:25:39.562Z,99.90
2023-02-27T16:27:52.473Z,99.90
2023-02-27T16:29:55.866Z,99.90
2023-02-27T16:31:58.123Z,99.90
2023-02-27T16:34:02.168Z,99.90
2023-02-27T16:36:11.264Z,99.90
2023-02-27T16:38:13.018Z,99.90
2023-02-27T16:40:16.393Z,99.90
2023-02-27T16:42:18.243Z,99.90
2023-02-27T16:44:21.468Z,99.90
2023-02-27T16:46:23.900Z,99.90
2023-02-27T16:48:25.792Z,99.90
2023-02-27T16:50:33.388Z,99.90
2023-02-27T16:52:35.189Z,99.90
2023-02-27T16:54:36.963Z,99.90
2023-02-27T16:56:39.094Z,99.90
2023-02-27T16:58:40.828Z,99.90
2023-02-27T17:00:42.928Z,99.90
2023-02-27T17:02:44.820Z,99.90
2023-02-27T17:04:48.015Z,99.90
2023-02-27T17:06:49.935Z,99.90
2023-02-27T17:08:51.815Z,99.90
2023-02-27T17:10:53.596Z,99.90
2023-02-27T17:12:55.208Z,99.90
2023-02-27T17:14:58.256Z,99.90
2023-02-27T17:17:00.014Z,99.90
2023-02-27T17:19:01.775Z,99.90
2023-02-27T17:21:03.982Z,99.90
2023-02-27T17:23:05.568Z,99.90
2023-02-27T17:25:07.761Z,99.90
2023-02-27T17:27:09.518Z,99.90
2023-02-27T17:29:12.124Z,99.90
2023-02-27T17:31:15.293Z,99.90
2023-02-27T17:33:17.155Z,99.90
2023-02-27T17:35:18.904Z,99.90
2023-02-27T17:37:20.738Z,99.90
2023-02-27T17:39:22.376Z,99.90
2023-02-27T17:41:24.467Z,99.90
2023-02-27T17:43:27.098Z,99.90
2023-02-27T17:45:28.741Z,99.90
2023-02-27T17:47:30.373Z,99.90
2023-02-27T17:49:31.985Z,99.90
2023-02-27T17:51:33.926Z,99.90
2023-02-27T17:53:35.901Z,99.90
2023-02-27T17:55:39.732Z,99.90
2023-02-27T17:57:42.353Z,99.90
2023-02-27T17:59:43.933Z,99.90
2023-02-27T18:01:45.765Z,99.90
2023-02-27T18:03:47.779Z,99.90
2023-02-27T18:05:52.755Z,99.90
2023-02-27T18:07:55.534Z,99.90
2023-02-27T18:09:57.483Z,99.90
2023-02-27T18:11:59.450Z,99.90
2023-02-27T18:14:01.112Z,99.90
2023-02-27T18:16:02.924Z,99.90
2023-02-27T18:18:04.943Z,99.90
2023-02-27T18:20:06.901Z,99.90
2023-02-27T18:22:09.227Z,99.90
2023-02-27T18:24:10.963Z,99.90
2023-02-27T18:26:27.130Z,99.90
2023-02-27T18:28:31.243Z,99.90
2023-02-27T18:30:35.927Z,99.90
2023-02-27T18:32:37.633Z,99.90
2023-02-27T18:34:39.848Z,99.90
2023-02-27T18:36:41.808Z,99.90
2023-02-27T18:38:43.911Z,99.90
2023-02-27T18:40:45.530Z,99.90
2023-02-27T18:42:48.379Z,99.90
2023-02-27T18:44:50.038Z,99.90
2023-02-27T18:46:51.814Z,99.90
2023-02-27T18:48:54.036Z,99.90
2023-02-27T18:50:59.942Z,99.90
2023-02-27T18:53:01.607Z,99.90
2023-02-27T18:55:03.374Z,99.90
2023-02-27T18:57:06.062Z,99.90
2023-02-27T18:59:07.784Z,99.90
2023-02-27T19:01:17.335Z,99.90
2023-02-27T19:03:19.133Z,99.90
2023-02-27T19:05:21.223Z,99.90
2023-02-27T19:07:23.758Z,99.90
2023-02-27T19:09:30.805Z,99.90
2023-02-27T19:11:35.942Z,99.90
2023-02-27T19:13:37.615Z,99.90
2023-02-27T19:15:39.453Z,99.90
2023-02-27T19:17:41.112Z,99.90
2023-02-27T19:19:42.810Z,99.90
2023-02-27T19:21:44.989Z,99.90
2023-02-27T19:23:47.049Z,99.90
2023-02-27T19:25:50.940Z,99.90
2023-02-27T19:27:53.626Z,99.90
2023-02-27T19:29:55.277Z,99.90
2023-02-27T19:31:56.981Z,99.90
2023-02-27T19:33:59.096Z,99.90
2023-02-27T19:36:04.504Z,99.90
2023-02-27T19:38:06.202Z,99.90
2023-02-27T19:40:08.935Z,99.90
2023-02-27T19:42:11.148Z,99.90
2023-02-27T19:44:12.983Z,99.90
2023-02-27T19:46:16.527Z,99.90
2023-02-27T19:48:19.793Z,99.90
2023-02-27T19:50:21.786Z,99.90
2023-02-27T19:52:23.581Z,99.90
2023-02-27T19:54:25.516Z,99.90
2023-02-27T19:56:35.156Z,99.90
2023-02-27T19:58:37.346Z,99.90
2023-02-27T20:00:40.106Z,99.90
2023-02-27T20:02:42.018Z,99.90
2023-02-27T20:04:45.400Z,99.90
2023-02-27T20:06:49.984Z,99.90
2023-02-27T20:08:51.948Z,99.90
2023-02-27T20:10:58.916Z,99.90
2023-02-27T20:13:00.654Z,99.90
2023-02-27T20:15:08.711Z,99.90
2023-02-27T20:17:11.077Z,99.90
2023-02-27T20:19:14.450Z,99.90
2023-02-27T20:21:17.393Z,99.90
2023-02-27T20:23:20.712Z,99.90
2023-02-27T20:25:22.549Z,99.90
2023-02-27T20:27:24.663Z,99.90
2023-02-27T20:29:27.174Z,99.90
2023-02-27T20:31:33.929Z,99.90
2023-02-27T20:33:36.048Z,99.90
2023-02-27T20:35:38.171Z,99.90
2023-02-27T20:37:40.048Z,99.90
2023-02-27T20:39:50.831Z,99.90
2023-02-27T20:41:56.556Z,99.90
2023-02-27T20:43:59.278Z,99.90
2023-02-27T20:46:10.249Z,99.90
2023-02-27T20:48:12.521Z,99.90
2023-02-27T20:50:14.915Z,99.90
2023-02-27T20:52:17.454Z,99.90
2023-02-27T20:54:22.458Z,99.90
2023-02-27T20:56:28.393Z,99.90
2023-02-27T20:58:33.452Z,99.90
2023-02-27T21:00:35.471Z,99.90
2023-02-27T21:02:37.122Z,99.90
2023-02-27T21:04:47.547Z,99.90
2023-02-27T21:06:49.936Z,99.90
2023-02-27T21:08:54.166Z,99.90
2023-02-27T21:10:57.429Z,99.90
2023-02-27T21:13:29.939Z,99.90
2023-02-27T21:22:23.053Z,99.90
2023-02-27T21:27:42.105Z,99.90
2023-02-27T21:30:27.414Z,99.90
2023-02-27T21:33:05.114Z,99.90
2023-02-27T21:42:19.947Z,99.90
2023-02-27T21:50:36.472Z,99.90
2023-02-27T21:52:53.946Z,99.90
2023-02-27T21:58:07.233Z,99.90
2023-02-27T22:06:24.762Z,99.90
2023-02-27T22:08:57.386Z,99.90
2023-02-27T22:14:04.759Z,99.90
2023-02-27T22:17:00.472Z,99.90
2023-02-27T22:19:13.702Z,99.90
2023-02-27T22:21:33.907Z,99.90
2023-02-27T22:24:02.159Z,99.90
2023-02-27T22:32:01.638Z,99.90
2023-02-27T22:34:59.662Z,99.90
2023-02-27T22:40:20.130Z,99.90
2023-02-27T22:42:48.686Z,99.90
2023-02-27T22:45:18.630Z,99.90
2023-02-27T22:50:25.268Z,99.90
2023-02-27T22:52:28.150Z,99.90
2023-02-27T22:54:30.382Z,99.90
2023-02-27T22:56:34.999Z,99.90
2023-02-27T22:58:40.450Z,99.90
2023-02-27T23:01:07.387Z,99.90
2023-02-27T23:03:14.921Z,99.90
2023-02-27T23:05:16.602Z,99.90
2023-02-27T23:07:18.548Z,99.90
2023-02-27T23:09:21.585Z,99.90
2023-02-27T23:11:23.499Z,99.90
2023-02-27T23:13:25.354Z,99.90
2023-02-27T23:15:27.004Z,99.90
2023-02-27T23:17:32.962Z,99.90
2023-02-27T23:19:36.444Z,99.90
2023-02-27T23:21:38.241Z,99.90
2023-02-27T23:23:39.871Z,99.90
2023-02-27T23:25:41.420Z,99.90
2023-02-27T23:27:42.951Z,99.90
2023-02-27T23:29:44.735Z,99.90
2023-02-27T23:31:46.700Z,99.90
2023-02-27T23:33:48.425Z,99.90
2023-02-27T23:35:50.638Z,99.90
2023-02-27T23:37:56.507Z,99.90
2023-02-27T23:39:58.065Z,99.90
2023-02-27T23:41:59.662Z,99.90
2023-02-27T23:44:01.870Z,99.90
2023-02-27T23:46:11.286Z,99.90
2023-02-27T23:48:13.019Z,99.90
2023-02-27T23:50:14.578Z,99.90
2023-02-27T23:52:16.141Z,99.90
2023-02-27T23:54:17.764Z,99.90
2023-02-27T23:56:21.061Z,99.90
2023-02-27T23:58:22.686Z,99.90
